Time;durP1;ratioP1;P1;durP2;ratioP2;P2;SDS_P1;SDS_P2;PMS_P1;PMS_P2;Temp;Humidity;BMP_temperature;BMP_pressure;BME280_temperature;BME280_humidity;BME280_pressure;Samples;Min_cycle;Max_cycle;Signal;HPM_P1;HPM_P2
2022/06/24 00:00:40;;;;;;;2.60;1.70;;;;;;;;;;5009920;28;20336;-70
2022/06/24 00:03:06;;;;;;;2.25;1.73;;;;;;;;;;4991963;28;20435;-70
2022/06/24 00:05:35;;;;;;;2.58;1.50;;;;;;;;;;4991139;28;20435;-70
2022/06/24 00:08:00;;;;;;;5.65;2.13;;;;;;;;;;5009535;28;20354;-70
2022/06/24 00:10:33;;;;;;;2.22;1.40;;;;;;;;;;5009777;28;20021;-71
2022/06/24 00:13:00;;;;;;;2.67;1.67;;;;;;;;;;4991228;28;20032;-70
2022/06/24 00:15:27;;;;;;;2.95;1.63;;;;;;;;;;4990892;28;20398;-71
2022/06/24 00:17:53;;;;;;;1.98;1.50;;;;;;;;;;5009407;28;20459;-70
2022/06/24 00:20:19;;;;;;;2.25;1.40;;;;;;;;;;4991853;28;20361;-71
2022/06/24 00:22:49;;;;;;;3.00;1.75;;;;;;;;;;4974477;28;20460;-70
2022/06/24 00:25:20;;;;;;;2.88;1.15;;;;;;;;;;5009487;28;20428;-70
2022/06/24 00:28:09;;;;;;;2.88;1.88;;;;;;;;;;5009623;28;20093;-71
2022/06/24 00:30:42;;;;;;;3.50;1.83;;;;;;;;;;5009960;28;20443;-70
2022/06/24 00:33:12;;;;;;;2.42;1.52;;;;;;;;;;5010075;28;20055;-70
2022/06/24 00:35:39;;;;;;;2.92;1.73;;;;;;;;;;5009072;28;20386;-71
2022/06/24 00:38:24;;;;;;;4.25;1.45;;;;;;;;;;4991209;28;20501;-70
2022/06/24 00:41:11;;;;;;;3.88;1.92;;;;;;;;;;5008296;28;20024;-71
2022/06/24 00:43:38;;;;;;;3.83;1.70;;;;;;;;;;5008269;28;20416;-71
2022/06/24 00:46:08;;;;;;;2.95;1.63;;;;;;;;;;5009894;28;20024;-70
2022/06/24 00:48:38;;;;;;;2.47;1.58;;;;;;;;;;5008942;28;20446;-71
2022/06/24 00:51:05;;;;;;;3.85;1.70;;;;;;;;;;4991338;28;20442;-71
2022/06/24 00:53:39;;;;;;;2.60;1.63;;;;;;;;;;4991240;28;20402;-71
2022/06/24 00:56:04;;;;;;;2.40;1.58;;;;;;;;;;5009068;28;20424;-71
2022/06/24 00:58:33;;;;;;;3.50;1.75;;;;;;;;;;4991131;28;20450;-71
2022/06/24 01:00:59;;;;;;;2.05;1.27;;;;;;;;;;4981100;28;20343;-70
2022/06/24 01:03:39;;;;;;;3.67;1.67;;;;;;;;;;5002442;28;20024;-71
2022/06/24 01:06:05;;;;;;;1.50;1.13;;;;;;;;;;5029870;28;20047;-70
2022/06/24 01:08:30;;;;;;;2.15;1.52;;;;;;;;;;5029078;28;20391;-71
2022/06/24 01:10:55;;;;;;;1.33;1.17;;;;;;;;;;5010661;28;20411;-71
2022/06/24 01:13:23;;;;;;;2.65;1.33;;;;;;;;;;5028486;28;20435;-71
2022/06/24 01:15:49;;;;;;;4.13;1.97;;;;;;;;;;5011278;28;20346;-70
2022/06/24 01:18:14;;;;;;;2.67;1.55;;;;;;;;;;5028747;28;20377;-71
2022/06/24 01:20:39;;;;;;;4.13;2.03;;;;;;;;;;5028795;28;20498;-71
2022/06/24 01:23:05;;;;;;;2.30;1.40;;;;;;;;;;5028817;28;20032;-70
2022/06/24 01:25:31;;;;;;;2.00;1.50;;;;;;;;;;5028252;28;20561;-72
2022/06/24 01:27:57;;;;;;;2.00;1.45;;;;;;;;;;5028399;28;20016;-71
2022/06/24 01:30:23;;;;;;;2.00;1.23;;;;;;;;;;5010702;28;20351;-72
2022/06/24 01:32:48;;;;;;;3.78;1.65;;;;;;;;;;5028637;28;20524;-72
2022/06/24 01:35:14;;;;;;;2.90;1.50;;;;;;;;;;5010047;28;20447;-70
2022/06/24 01:37:39;;;;;;;2.40;1.40;;;;;;;;;;5029068;28;20426;-71
2022/06/24 01:40:05;;;;;;;2.88;1.60;;;;;;;;;;5010286;28;20312;-70
2022/06/24 01:42:31;;;;;;;1.60;1.35;;;;;;;;;;5026893;28;20419;-70
2022/06/24 01:44:57;;;;;;;4.95;1.58;;;;;;;;;;5011073;28;20507;-70
2022/06/24 01:47:22;;;;;;;1.70;1.30;;;;;;;;;;5028368;28;20342;-71
2022/06/24 01:49:47;;;;;;;2.03;1.50;;;;;;;;;;5028197;28;20363;-70
2022/06/24 01:52:14;;;;;;;2.35;1.67;;;;;;;;;;5028333;28;20476;-70
2022/06/24 01:54:40;;;;;;;1.83;1.35;;;;;;;;;;5033261;28;20024;-70
2022/06/24 01:57:05;;;;;;;2.22;1.45;;;;;;;;;;5031846;28;20438;-71
2022/06/24 01:59:31;;;;;;;4.20;1.77;;;;;;;;;;5014016;28;20431;-72
2022/06/24 02:01:56;;;;;;;2.67;1.45;;;;;;;;;;5030367;28;20335;-70
2022/06/24 02:04:21;;;;;;;3.00;1.52;;;;;;;;;;5013532;28;20373;-71
2022/06/24 02:06:47;;;;;;;2.75;1.23;;;;;;;;;;5013823;28;20423;-71
2022/06/24 02:09:16;;;;;;;2.38;1.45;;;;;;;;;;5013699;28;20135;-71
2022/06/24 02:14:33;;;;;;;1.90;1.30;;;;;;;;;;5006756;28;20447;-71
2022/06/24 02:16:59;;;;;;;1.70;1.30;;;;;;;;;;5013482;28;20524;-71
2022/06/24 02:19:24;;;;;;;2.35;1.20;;;;;;;;;;5014295;28;20407;-71
2022/06/24 02:21:50;;;;;;;2.92;1.58;;;;;;;;;;5031467;28;20340;-70
2022/06/24 02:24:15;;;;;;;2.80;1.70;;;;;;;;;;5013532;28;20367;-71
2022/06/24 02:26:43;;;;;;;3.15;1.73;;;;;;;;;;5013062;28;20473;-71
2022/06/24 02:29:10;;;;;;;4.25;1.85;;;;;;;;;;5013752;28;20457;-72
2022/06/24 02:31:36;;;;;;;1.60;1.30;;;;;;;;;;5031259;28;20021;-70
2022/06/24 02:34:01;;;;;;;2.30;1.70;;;;;;;;;;5031357;28;20477;-71
2022/06/24 02:36:26;;;;;;;1.42;1.25;;;;;;;;;;5031399;28;20466;-70
2022/06/24 02:38:52;;;;;;;2.85;1.60;;;;;;;;;;5013008;28;20028;-70
2022/06/24 02:41:17;;;;;;;3.00;1.52;;;;;;;;;;5031369;28;20397;-71
2022/06/24 02:43:42;;;;;;;4.07;1.45;;;;;;;;;;5032701;28;20407;-71
2022/06/24 02:46:10;;;;;;;1.98;1.17;;;;;;;;;;5013232;28;20028;-71
2022/06/24 02:48:38;;;;;;;3.07;1.70;;;;;;;;;;5012837;28;20351;-70
2022/06/24 02:51:05;;;;;;;2.67;1.70;;;;;;;;;;5013255;28;20339;-71
2022/06/24 02:53:31;;;;;;;3.30;1.48;;;;;;;;;;5012801;28;20442;-70
2022/06/24 02:56:01;;;;;;;2.58;1.65;;;;;;;;;;4996330;28;20358;-71
2022/06/24 02:58:26;;;;;;;1.65;1.38;;;;;;;;;;5013220;28;20427;-70
2022/06/24 03:00:52;;;;;;;2.42;1.33;;;;;;;;;;5012537;28;20450;-70
2022/06/24 03:03:19;;;;;;;2.22;1.20;;;;;;;;;;5031050;28;20055;-71
2022/06/24 03:05:45;;;;;;;3.65;1.30;;;;;;;;;;5029699;28;20446;-70
2022/06/24 03:08:12;;;;;;;1.67;1.40;;;;;;;;;;5030635;28;20450;-71
2022/06/24 03:10:37;;;;;;;2.33;1.70;;;;;;;;;;5030277;28;20570;-70
2022/06/24 03:13:03;;;;;;;1.83;1.48;;;;;;;;;;5012598;28;20434;-71
2022/06/24 03:15:30;;;;;;;1.98;1.50;;;;;;;;;;5012091;28;20316;-70
2022/06/24 03:17:55;;;;;;;2.10;1.60;;;;;;;;;;5031160;28;20427;-70
2022/06/24 03:20:21;;;;;;;2.47;1.40;;;;;;;;;;5012438;28;20430;-70
2022/06/24 03:22:46;;;;;;;1.98;1.40;;;;;;;;;;5012419;28;20435;-70
2022/06/24 03:25:11;;;;;;;3.25;1.58;;;;;;;;;;5011693;28;20443;-70
2022/06/24 03:27:37;;;;;;;1.77;1.40;;;;;;;;;;5012560;28;20392;-71
2022/06/24 03:30:04;;;;;;;5.28;1.60;;;;;;;;;;5031204;28;20430;-70
2022/06/24 03:32:29;;;;;;;1.60;1.23;;;;;;;;;;5030432;28;20400;-70
2022/06/24 03:34:55;;;;;;;4.45;1.63;;;;;;;;;;5012659;28;20412;-70
2022/06/24 03:37:20;;;;;;;1.80;1.35;;;;;;;;;;5030086;28;20319;-70
2022/06/24 03:39:46;;;;;;;2.13;1.80;;;;;;;;;;5012275;28;20434;-71
2022/06/24 03:42:11;;;;;;;2.10;1.50;;;;;;;;;;5011617;28;20396;-71
2022/06/24 03:44:36;;;;;;;2.00;1.70;;;;;;;;;;5030228;28;20398;-71
2022/06/24 03:47:02;;;;;;;2.38;1.50;;;;;;;;;;5011337;28;20024;-71
2022/06/24 03:49:28;;;;;;;4.25;1.70;;;;;;;;;;5011431;28;20413;-70
2022/06/24 03:51:54;;;;;;;4.53;1.80;;;;;;;;;;5012418;28;20032;-71
2022/06/24 03:54:19;;;;;;;3.80;1.95;;;;;;;;;;5029791;28;20410;-71
2022/06/24 03:56:44;;;;;;;1.90;1.40;;;;;;;;;;5030153;28;20446;-72
2022/06/24 03:59:10;;;;;;;1.90;1.33;;;;;;;;;;5029863;28;20047;-71
2022/06/24 04:01:35;;;;;;;2.80;1.75;;;;;;;;;;5011431;28;20114;-71
2022/06/24 04:04:01;;;;;;;4.85;1.70;;;;;;;;;;5011148;28;20028;-70
2022/06/24 04:06:26;;;;;;;1.70;1.30;;;;;;;;;;5011533;28;20323;-70
2022/06/24 04:08:52;;;;;;;2.40;1.63;;;;;;;;;;5029731;28;20308;-70
2022/06/24 04:11:18;;;;;;;2.22;1.70;;;;;;;;;;5030929;28;20324;-71
2022/06/24 04:13:44;;;;;;;2.28;1.38;;;;;;;;;;5011768;28;20413;-71
2022/06/24 04:16:09;;;;;;;4.25;1.63;;;;;;;;;;5029303;28;20032;-70
2022/06/24 04:18:35;;;;;;;2.40;1.80;;;;;;;;;;5031204;28;20485;-71
2022/06/24 04:21:00;;;;;;;3.70;1.60;;;;;;;;;;5010981;28;20401;-72
2022/06/24 04:23:26;;;;;;;2.05;1.65;;;;;;;;;;5029730;28;20050;-70
2022/06/24 04:25:52;;;;;;;1.67;1.40;;;;;;;;;;5010539;28;20067;-70
2022/06/24 04:28:17;;;;;;;1.80;1.40;;;;;;;;;;5011010;28;20422;-70
2022/06/24 04:30:43;;;;;;;1.45;1.13;;;;;;;;;;5028690;28;20466;-71
2022/06/24 04:33:08;;;;;;;2.85;1.50;;;;;;;;;;5029115;28;20521;-70
2022/06/24 04:35:34;;;;;;;2.65;1.42;;;;;;;;;;5029010;28;20702;-70
2022/06/24 04:37:59;;;;;;;2.03;1.40;;;;;;;;;;5029116;28;20470;-71
2022/06/24 04:40:25;;;;;;;2.55;1.40;;;;;;;;;;5011174;28;20107;-70
2022/06/24 04:42:51;;;;;;;3.00;1.60;;;;;;;;;;5028437;28;20111;-70
2022/06/24 04:45:16;;;;;;;2.45;1.70;;;;;;;;;;5011386;28;20429;-70
2022/06/24 04:47:41;;;;;;;2.95;1.80;;;;;;;;;;5028623;28;20457;-70
2022/06/24 04:50:08;;;;;;;2.38;1.50;;;;;;;;;;5010727;28;20459;-71
2022/06/24 04:52:34;;;;;;;2.15;1.70;;;;;;;;;;5027777;28;20024;-70
2022/06/24 04:55:00;;;;;;;3.42;1.67;;;;;;;;;;5010693;28;20419;-70
2022/06/24 04:57:26;;;;;;;3.28;1.58;;;;;;;;;;5029067;28;20046;-69
2022/06/24 04:59:51;;;;;;;2.85;1.63;;;;;;;;;;5010574;28;20205;-70
2022/06/24 05:02:17;;;;;;;2.65;1.70;;;;;;;;;;5028711;28;20054;-70
2022/06/24 05:04:42;;;;;;;2.80;1.70;;;;;;;;;;5010984;28;20462;-70
2022/06/24 05:07:07;;;;;;;3.03;1.70;;;;;;;;;;5028897;28;20400;-70
2022/06/24 05:09:33;;;;;;;2.53;1.77;;;;;;;;;;5029039;28;20096;-70
2022/06/24 05:11:59;;;;;;;3.50;2.05;;;;;;;;;;4994132;28;20470;-70
2022/06/24 05:14:24;;;;;;;2.58;1.65;;;;;;;;;;5010546;28;20431;-70
2022/06/24 05:16:50;;;;;;;5.72;1.50;;;;;;;;;;5028733;28;20032;-71
2022/06/24 05:19:15;;;;;;;2.72;1.50;;;;;;;;;;5029255;28;20441;-69
2022/06/24 05:21:41;;;;;;;2.75;1.55;;;;;;;;;;5026959;28;20375;-69
2022/06/24 05:24:08;;;;;;;2.83;1.60;;;;;;;;;;5010472;28;20466;-70
2022/06/24 05:26:33;;;;;;;3.17;2.00;;;;;;;;;;5010083;28;20044;-70
2022/06/24 05:28:59;;;;;;;3.22;1.50;;;;;;;;;;5031385;28;20394;-70
2022/06/24 05:31:24;;;;;;;1.58;1.42;;;;;;;;;;5032673;28;20458;-70
2022/06/24 05:33:49;;;;;;;3.17;1.55;;;;;;;;;;5032388;28;20516;-70
2022/06/24 05:36:15;;;;;;;3.58;1.48;;;;;;;;;;5032309;28;20431;-70
2022/06/24 05:38:41;;;;;;;2.38;1.63;;;;;;;;;;5032437;28;20427;-69
2022/06/24 05:41:07;;;;;;;3.53;1.80;;;;;;;;;;5033394;28;20399;-69
2022/06/24 05:43:32;;;;;;;3.10;1.98;;;;;;;;;;5014006;28;20478;-69
2022/06/24 05:45:58;;;;;;;2.22;1.60;;;;;;;;;;5014216;28;20655;-69
2022/06/24 05:48:23;;;;;;;2.97;1.38;;;;;;;;;;5031993;28;20338;-69
2022/06/24 05:50:48;;;;;;;2.95;1.63;;;;;;;;;;5030689;28;20050;-71
2022/06/24 05:55:59;;;;;;;2.13;1.50;;;;;;;;;;5032836;28;20385;-69
2022/06/24 05:58:26;;;;;;;3.25;1.85;;;;;;;;;;5014824;28;20523;-69
2022/06/24 06:00:53;;;;;;;7.55;1.75;;;;;;;;;;5014556;28;20382;-70
2022/06/24 06:03:18;;;;;;;3.92;1.85;;;;;;;;;;5031856;28;20409;-69
2022/06/24 06:05:44;;;;;;;3.72;1.30;;;;;;;;;;5031622;28;20081;-70
2022/06/24 06:08:10;;;;;;;1.40;1.30;;;;;;;;;;5013587;28;20366;-70
2022/06/24 06:10:37;;;;;;;2.40;1.50;;;;;;;;;;5032150;28;20387;-70
2022/06/24 06:13:03;;;;;;;2.88;1.40;;;;;;;;;;5031939;28;20412;-69
2022/06/24 06:15:29;;;;;;;1.60;1.20;;;;;;;;;;5013972;28;20396;-70
2022/06/24 06:17:55;;;;;;;2.20;1.52;;;;;;;;;;5029853;28;20468;-69
2022/06/24 06:20:20;;;;;;;1.85;1.40;;;;;;;;;;5014366;28;20384;-69
2022/06/24 06:22:45;;;;;;;1.98;1.30;;;;;;;;;;5029906;28;20419;-69
2022/06/24 06:25:11;;;;;;;3.35;1.55;;;;;;;;;;5031007;28;20032;-69
2022/06/24 06:27:37;;;;;;;2.33;1.50;;;;;;;;;;5029667;28;20375;-69
2022/06/24 06:30:04;;;;;;;2.15;1.33;;;;;;;;;;5013379;28;20098;-69
2022/06/24 06:32:30;;;;;;;3.33;1.45;;;;;;;;;;5031667;28;20028;-69
2022/06/24 06:34:55;;;;;;;1.95;1.30;;;;;;;;;;5031580;28;20043;-69
2022/06/24 06:37:20;;;;;;;2.85;1.48;;;;;;;;;;5031073;28;20484;-69
2022/06/24 06:39:46;;;;;;;2.00;1.30;;;;;;;;;;5030389;28;20032;-70
2022/06/24 06:42:11;;;;;;;3.55;1.55;;;;;;;;;;5031314;28;20422;-69
2022/06/24 06:44:37;;;;;;;1.98;1.30;;;;;;;;;;5029648;28;20519;-69
2022/06/24 06:47:02;;;;;;;2.38;1.30;;;;;;;;;;5031188;28;20324;-70
2022/06/24 06:49:28;;;;;;;2.53;1.42;;;;;;;;;;5030773;28;20036;-69
2022/06/24 06:51:53;;;;;;;3.08;1.27;;;;;;;;;;5031923;28;20406;-69
2022/06/24 06:54:19;;;;;;;2.13;1.10;;;;;;;;;;5012840;28;20051;-70
2022/06/24 06:56:45;;;;;;;5.28;1.30;;;;;;;;;;5031311;28;20414;-69
2022/06/24 06:59:10;;;;;;;2.63;1.60;;;;;;;;;;5030349;28;20417;-69
2022/06/24 07:01:36;;;;;;;2.08;1.42;;;;;;;;;;5030837;28;20024;-70
2022/06/24 07:04:01;;;;;;;2.60;1.30;;;;;;;;;;5030022;28;20086;-69
2022/06/24 07:06:26;;;;;;;2.38;1.40;;;;;;;;;;5030180;28;22452;-69
2022/06/24 07:08:52;;;;;;;1.42;1.13;;;;;;;;;;5030600;28;20387;-69
2022/06/24 07:11:17;;;;;;;2.47;1.35;;;;;;;;;;5030175;28;20468;-69
2022/06/24 07:13:43;;;;;;;2.17;1.30;;;;;;;;;;5030758;28;20411;-69
2022/06/24 07:16:10;;;;;;;1.70;1.20;;;;;;;;;;5030399;28;20355;-69
2022/06/24 07:18:36;;;;;;;1.33;1.10;;;;;;;;;;5012827;28;20036;-69
2022/06/24 07:21:01;;;;;;;2.58;1.27;;;;;;;;;;5030809;28;20407;-69
2022/06/24 07:23:27;;;;;;;2.35;1.20;;;;;;;;;;5031997;28;20418;-70
2022/06/24 07:25:56;;;;;;;2.00;1.10;;;;;;;;;;5012059;28;20526;-68
2022/06/24 07:28:21;;;;;;;2.42;1.70;;;;;;;;;;5030420;28;20428;-69
2022/06/24 07:30:46;;;;;;;5.50;1.27;;;;;;;;;;5030634;28;20424;-68
2022/06/24 07:33:12;;;;;;;4.47;1.52;;;;;;;;;;5031160;28;20453;-69
2022/06/24 07:35:37;;;;;;;2.72;1.15;;;;;;;;;;5012517;28;20362;-70
2022/06/24 07:38:03;;;;;;;1.20;0.90;;;;;;;;;;5030564;28;20435;-68
2022/06/24 07:40:28;;;;;;;1.38;1.00;;;;;;;;;;5012826;28;20127;-68
2022/06/24 07:42:54;;;;;;;2.47;1.08;;;;;;;;;;5029720;28;20450;-69
2022/06/24 07:45:19;;;;;;;2.03;1.30;;;;;;;;;;5030144;28;20482;-68
2022/06/24 07:47:45;;;;;;;2.17;1.20;;;;;;;;;;5030167;28;20445;-68
2022/06/24 07:50:11;;;;;;;1.63;1.10;;;;;;;;;;5029684;28;20351;-69
2022/06/24 07:52:36;;;;;;;2.13;1.33;;;;;;;;;;5029021;28;20374;-69
2022/06/24 07:57:45;;;;;;;1.58;1.23;;;;;;;;;;5029758;28;20063;-68
2022/06/24 08:00:11;;;;;;;4.57;1.35;;;;;;;;;;5029727;28;20411;-70
2022/06/24 08:02:37;;;;;;;2.05;1.10;;;;;;;;;;5029558;28;20512;-69
2022/06/24 08:05:02;;;;;;;1.13;0.88;;;;;;;;;;5029556;28;20427;-69
2022/06/24 08:07:28;;;;;;;2.45;1.42;;;;;;;;;;5030582;28;20431;-69
2022/06/24 08:09:53;;;;;;;1.80;1.42;;;;;;;;;;5029732;28;20028;-69
2022/06/24 08:12:18;;;;;;;2.85;1.35;;;;;;;;;;5029489;28;20507;-69
2022/06/24 08:14:44;;;;;;;1.60;1.05;;;;;;;;;;5029367;28;20354;-70
2022/06/24 08:17:09;;;;;;;1.73;1.23;;;;;;;;;;5029527;28;20481;-68
2022/06/24 08:19:35;;;;;;;2.42;1.13;;;;;;;;;;5029682;28;20449;-69
2022/06/24 08:22:00;;;;;;;2.63;1.58;;;;;;;;;;5011155;28;20036;-68
2022/06/24 08:24:26;;;;;;;2.63;1.38;;;;;;;;;;5010816;28;20032;-69
2022/06/24 08:26:51;;;;;;;1.70;1.20;;;;;;;;;;5028797;28;20344;-68
2022/06/24 08:29:17;;;;;;;3.00;1.27;;;;;;;;;;5029077;28;20463;-69
2022/06/24 08:31:45;;;;;;;1.45;1.15;;;;;;;;;;5011333;28;20078;-68
2022/06/24 08:34:10;;;;;;;2.38;1.15;;;;;;;;;;5011027;28;20431;-68
2022/06/24 08:36:36;;;;;;;2.22;1.30;;;;;;;;;;5029385;28;20028;-69
2022/06/24 08:39:02;;;;;;;1.63;1.08;;;;;;;;;;5010705;28;20354;-69
2022/06/24 08:41:28;;;;;;;2.20;1.23;;;;;;;;;;5029307;28;20500;-68
2022/06/24 08:43:58;;;;;;;1.17;1.05;;;;;;;;;;5028964;28;20323;-69
2022/06/24 08:46:25;;;;;;;2.00;1.30;;;;;;;;;;5029108;28;20059;-73
2022/06/24 08:48:51;;;;;;;1.85;1.10;;;;;;;;;;5028923;28;20103;-69
2022/06/24 08:51:17;;;;;;;1.88;1.00;;;;;;;;;;5029632;28;20339;-68
2022/06/24 08:53:45;;;;;;;1.90;1.00;;;;;;;;;;5011794;28;20316;-68
2022/06/24 08:56:10;;;;;;;1.52;0.98;;;;;;;;;;5029128;28;20347;-68
2022/06/24 08:58:36;;;;;;;1.33;0.95;;;;;;;;;;5010383;28;20284;-68
2022/06/24 09:01:02;;;;;;;3.13;1.20;;;;;;;;;;5028638;28;20459;-68
2022/06/24 09:03:27;;;;;;;4.68;1.35;;;;;;;;;;5009477;28;20431;-69
2022/06/24 09:05:53;;;;;;;1.38;1.02;;;;;;;;;;5028624;28;20431;-69
2022/06/24 09:08:19;;;;;;;4.90;1.10;;;;;;;;;;5028729;28;20121;-68
2022/06/24 09:13:31;;;;;;;2.15;0.70;;;;;;;;;;5030845;28;20055;-69
2022/06/24 09:15:56;;;;;;;1.60;0.98;;;;;;;;;;5028842;28;20459;-70
2022/06/24 09:18:24;;;;;;;1.02;0.93;;;;;;;;;;5028698;28;20415;-68
2022/06/24 09:20:56;;;;;;;1.67;0.88;;;;;;;;;;5010472;28;20058;-69
2022/06/24 09:23:22;;;;;;;2.33;1.08;;;;;;;;;;5010535;28;20382;-68
2022/06/24 09:25:53;;;;;;;3.78;1.00;;;;;;;;;;5028019;28;20032;-70
2022/06/24 09:28:28;;;;;;;1.42;1.00;;;;;;;;;;5010614;28;20339;-68
2022/06/24 09:31:07;;;;;;;2.50;1.20;;;;;;;;;;5028408;28;20461;-69
2022/06/24 09:33:41;;;;;;;1.38;1.00;;;;;;;;;;5028770;28;20449;-68
2022/06/24 09:36:09;;;;;;;1.33;1.15;;;;;;;;;;5028637;28;20457;-68
2022/06/24 09:38:54;;;;;;;1.30;0.90;;;;;;;;;;5028614;28;20426;-69
2022/06/24 09:41:20;;;;;;;2.25;1.02;;;;;;;;;;5028586;28;20397;-68
2022/06/24 09:43:46;;;;;;;2.22;0.95;;;;;;;;;;5030035;28;20056;-68
2022/06/24 09:46:19;;;;;;;1.98;1.38;;;;;;;;;;5029501;28;20431;-68
2022/06/24 09:48:45;;;;;;;1.40;0.98;;;;;;;;;;5010700;28;20055;-69
2022/06/24 09:51:11;;;;;;;1.55;1.27;;;;;;;;;;5010480;28;20415;-68
2022/06/24 09:53:40;;;;;;;0.85;0.80;;;;;;;;;;5028789;28;20455;-68
2022/06/24 09:56:07;;;;;;;1.77;0.82;;;;;;;;;;5029090;28;20347;-73
2022/06/24 09:58:34;;;;;;;2.35;1.02;;;;;;;;;;5010719;28;20430;-68
2022/06/24 10:01:00;;;;;;;1.10;0.82;;;;;;;;;;5010045;28;20447;-70
2022/06/24 10:03:27;;;;;;;1.20;0.77;;;;;;;;;;5028353;28;20412;-69
2022/06/24 10:05:52;;;;;;;1.73;0.90;;;;;;;;;;5028389;28;20419;-68
2022/06/24 10:08:20;;;;;;;2.20;1.10;;;;;;;;;;5009976;28;20452;-69
2022/06/24 10:10:55;;;;;;;1.58;0.90;;;;;;;;;;5010419;28;20470;-68
2022/06/24 10:13:32;;;;;;;1.75;1.10;;;;;;;;;;5010091;28;20462;-68
2022/06/24 10:16:00;;;;;;;1.30;0.93;;;;;;;;;;5013472;28;20020;-68
2022/06/24 10:18:28;;;;;;;;;;;;;;;;;;5014653;28;20184;-68
2022/06/24 10:20:59;;;;;;;2.53;1.58;;;;;;;;;;5013942;28;20235;-68
2022/06/24 10:23:44;;;;;;;2.13;1.10;;;;;;;;;;5013903;28;20451;-69
2022/06/24 10:26:10;;;;;;;1.50;1.17;;;;;;;;;;5013224;28;20371;-69
2022/06/24 10:29:03;;;;;;;1.98;1.10;;;;;;;;;;5031097;28;20293;-68
2022/06/24 10:31:56;;;;;;;0.98;0.75;;;;;;;;;;5030028;28;20362;-68
2022/06/24 10:34:22;;;;;;;1.17;0.82;;;;;;;;;;5031328;28;20388;-69
2022/06/24 10:36:48;;;;;;;0.80;0.80;;;;;;;;;;5031448;28;20380;-69
2022/06/24 10:39:22;;;;;;;1.52;0.80;;;;;;;;;;5013322;28;20457;-69
2022/06/24 10:42:02;;;;;;;1.48;0.82;;;;;;;;;;5032319;28;20418;-69
2022/06/24 10:44:31;;;;;;;2.28;0.90;;;;;;;;;;5012858;28;20348;-69
2022/06/24 10:47:05;;;;;;;1.90;0.88;;;;;;;;;;5031152;28;20404;-70
2022/06/24 10:49:55;;;;;;;3.00;1.13;;;;;;;;;;5031912;28;20326;-71
2022/06/24 10:52:45;;;;;;;0.70;0.68;;;;;;;;;;5031582;28;20369;-70
2022/06/24 10:57:43;;;;;;;0.77;0.68;;;;;;;;;;5032332;28;20058;-69
2022/06/24 11:00:15;;;;;;;1.10;0.75;;;;;;;;;;5031054;28;20389;-69
2022/06/24 11:02:41;;;;;;;2.83;1.05;;;;;;;;;;5012223;28;20345;-69
2022/06/24 11:05:24;;;;;;;1.65;0.90;;;;;;;;;;5030609;28;20439;-69
2022/06/24 11:07:50;;;;;;;1.30;0.82;;;;;;;;;;5030595;28;20347;-69
2022/06/24 11:10:24;;;;;;;2.95;0.68;;;;;;;;;;5012111;28;20323;-69
2022/06/24 11:13:00;;;;;;;1.75;0.68;;;;;;;;;;5030897;28;20311;-69
2022/06/24 11:15:55;;;;;;;0.93;0.70;;;;;;;;;;5030055;28;20316;-69
2022/06/24 11:18:24;;;;;;;1.05;0.70;;;;;;;;;;5027786;28;20378;-69
2022/06/24 11:21:06;;;;;;;0.90;0.63;;;;;;;;;;5012171;28;20435;-71
2022/06/24 11:23:33;;;;;;;1.70;0.88;;;;;;;;;;5012346;28;20350;-69
2022/06/24 11:26:19;;;;;;;0.80;0.57;;;;;;;;;;5010659;28;20134;-70
2022/06/24 11:28:55;;;;;;;1.60;0.60;;;;;;;;;;5029993;28;20317;-69
2022/06/24 11:31:21;;;;;;;1.27;0.60;;;;;;;;;;5030081;28;20339;-69
2022/06/24 11:33:50;;;;;;;3.20;0.77;;;;;;;;;;5030473;28;20110;-69
2022/06/24 11:36:16;;;;;;;0.98;0.70;;;;;;;;;;5029741;28;20502;-69
2022/06/24 11:38:52;;;;;;;1.92;0.60;;;;;;;;;;5031861;28;20430;-69
2022/06/24 11:41:34;;;;;;;0.98;0.60;;;;;;;;;;5030028;28;20098;-69
2022/06/24 11:44:00;;;;;;;5.47;0.60;;;;;;;;;;5030006;28;20351;-70
2022/06/24 11:46:25;;;;;;;1.65;0.73;;;;;;;;;;4995376;28;20331;-69
2022/06/24 11:49:10;;;;;;;1.15;0.73;;;;;;;;;;5030363;28;20389;-70
2022/06/24 11:51:35;;;;;;;0.93;0.80;;;;;;;;;;5011877;28;20334;-69
2022/06/24 11:54:03;;;;;;;1.00;0.80;;;;;;;;;;5011717;28;20316;-70
2022/06/24 11:56:33;;;;;;;0.80;0.63;;;;;;;;;;5029794;28;20439;-69
2022/06/24 11:59:04;;;;;;;1.13;0.70;;;;;;;;;;5011330;28;20032;-69
2022/06/24 12:01:30;;;;;;;0.63;0.57;;;;;;;;;;5011615;28;20066;-69
2022/06/24 12:04:06;;;;;;;1.58;0.75;;;;;;;;;;5011863;28;20462;-69
2022/06/24 12:06:32;;;;;;;0.85;0.73;;;;;;;;;;5029178;28;20438;-69
2022/06/24 12:08:58;;;;;;;1.25;0.50;;;;;;;;;;5011529;28;20447;-69
2022/06/24 12:11:24;;;;;;;0.43;0.40;;;;;;;;;;5011950;28;20434;-69
2022/06/24 12:14:04;;;;;;;1.33;0.52;;;;;;;;;;5011350;28;20446;-69
2022/06/24 12:16:58;;;;;;;1.23;0.85;;;;;;;;;;5029629;28;20411;-69
2022/06/24 12:19:27;;;;;;;1.80;0.85;;;;;;;;;;5030006;28;20471;-69
2022/06/24 12:22:03;;;;;;;1.00;0.60;;;;;;;;;;5011498;28;20047;-69
2022/06/24 12:24:29;;;;;;;0.80;0.80;;;;;;;;;;5029179;28;20378;-69
2022/06/24 12:26:55;;;;;;;1.92;0.90;;;;;;;;;;5010546;28;20047;-69
2022/06/24 12:29:30;;;;;;;1.95;0.90;;;;;;;;;;5011304;28;20327;-69
2022/06/24 12:31:56;;;;;;;4.55;0.90;;;;;;;;;;5011194;28;20104;-70
2022/06/24 12:34:26;;;;;;;3.22;0.98;;;;;;;;;;5029330;28;20521;-69
2022/06/24 12:36:56;;;;;;;1.33;0.75;;;;;;;;;;5029210;28;20324;-69
2022/06/24 12:39:29;;;;;;;2.90;0.85;;;;;;;;;;5029715;28;20385;-70
2022/06/24 12:41:55;;;;;;;2.20;1.10;;;;;;;;;;5029386;28;20302;-69
2022/06/24 12:44:20;;;;;;;2.15;0.73;;;;;;;;;;5010650;28;20024;-69
2022/06/24 12:52:38;;;;;;;2.70;0.85;;;;;;;;;;5013917;28;20092;-69
2022/06/24 12:55:08;;;;;;;1.77;0.60;;;;;;;;;;5010123;28;20121;-69
2022/06/24 12:57:34;;;;;;;1.38;0.70;;;;;;;;;;5009485;28;20028;-69
2022/06/24 13:00:03;;;;;;;2.35;0.90;;;;;;;;;;5028173;28;20346;-69
2022/06/24 13:02:29;;;;;;;1.60;0.88;;;;;;;;;;5010281;28;20457;-69
2022/06/24 13:04:54;;;;;;;1.15;0.70;;;;;;;;;;5030369;28;20333;-69
2022/06/24 13:07:20;;;;;;;7.18;0.75;;;;;;;;;;5029365;28;20414;-70
2022/06/24 13:09:45;;;;;;;1.60;0.85;;;;;;;;;;5011416;28;20427;-68
2022/06/24 13:12:10;;;;;;;1.20;0.70;;;;;;;;;;5009975;28;20393;-69
2022/06/24 13:14:36;;;;;;;1.00;0.82;;;;;;;;;;5028792;28;20417;-69
2022/06/24 13:17:01;;;;;;;1.83;0.80;;;;;;;;;;5028414;28;20423;-69
2022/06/24 13:19:27;;;;;;;1.83;0.85;;;;;;;;;;5027705;28;20089;-69
2022/06/24 13:21:52;;;;;;;0.82;0.80;;;;;;;;;;5026554;28;20422;-69
2022/06/24 13:24:19;;;;;;;1.88;0.70;;;;;;;;;;5028143;28;20450;-69
2022/06/24 13:26:46;;;;;;;3.22;0.80;;;;;;;;;;5026687;28;20417;-69
2022/06/24 13:29:11;;;;;;;2.50;0.88;;;;;;;;;;5028541;28;20411;-69
2022/06/24 13:31:36;;;;;;;1.65;0.80;;;;;;;;;;5015844;28;20371;-69
2022/06/24 13:34:02;;;;;;;1.38;0.88;;;;;;;;;;5028622;28;20498;-69
2022/06/24 13:36:27;;;;;;;1.25;0.80;;;;;;;;;;5028408;28;20350;-68
2022/06/24 13:38:53;;;;;;;1.20;0.90;;;;;;;;;;5028404;28;20131;-68
2022/06/24 13:41:18;;;;;;;0.88;0.80;;;;;;;;;;5029330;28;20358;-69
2022/06/24 13:43:45;;;;;;;3.85;0.80;;;;;;;;;;5028485;28;20401;-68
2022/06/24 13:46:10;;;;;;;1.30;0.90;;;;;;;;;;5029237;28;20447;-68
2022/06/24 13:48:37;;;;;;;1.23;1.00;;;;;;;;;;5030121;28;20495;-68
2022/06/24 13:51:02;;;;;;;2.90;0.80;;;;;;;;;;5032067;28;20484;-68
2022/06/24 13:53:28;;;;;;;1.77;0.90;;;;;;;;;;5032493;28;20097;-68
2022/06/24 13:55:53;;;;;;;1.73;0.88;;;;;;;;;;5032144;28;20504;-68
2022/06/24 13:58:19;;;;;;;2.10;0.82;;;;;;;;;;5032228;28;20417;-69
2022/06/24 14:00:44;;;;;;;1.08;0.88;;;;;;;;;;5032146;28;20059;-68
2022/06/24 14:03:09;;;;;;;3.95;0.90;;;;;;;;;;5032102;28;20430;-70
2022/06/24 14:05:35;;;;;;;2.97;1.00;;;;;;;;;;5013830;28;20051;-68
2022/06/24 14:08:01;;;;;;;1.08;0.88;;;;;;;;;;5031688;28;20042;-68
2022/06/24 14:10:27;;;;;;;1.60;0.70;;;;;;;;;;5032045;28;20427;-68
2022/06/24 14:12:54;;;;;;;3.38;0.77;;;;;;;;;;5013680;28;20399;-68
2022/06/24 14:15:19;;;;;;;1.65;1.00;;;;;;;;;;5032123;28;20024;-68
2022/06/24 14:17:45;;;;;;;1.05;0.90;;;;;;;;;;5031684;28;20551;-69
2022/06/24 14:20:11;;;;;;;2.47;0.95;;;;;;;;;;5033442;28;20405;-68
2022/06/24 14:22:37;;;;;;;1.13;0.80;;;;;;;;;;5013254;28;20470;-68
2022/06/24 14:25:03;;;;;;;1.10;1.00;;;;;;;;;;5013708;28;20376;-68
2022/06/24 14:27:28;;;;;;;1.08;0.70;;;;;;;;;;5032401;28;20378;-68
2022/06/24 14:29:54;;;;;;;0.95;0.70;;;;;;;;;;5031446;28;20089;-69
2022/06/24 14:32:19;;;;;;;1.52;1.05;;;;;;;;;;5031543;28;20500;-68
2022/06/24 14:34:44;;;;;;;1.52;1.10;;;;;;;;;;5031567;28;20386;-69
2022/06/24 14:40:12;;;;;;;1.67;0.70;;;;;;;;;;5031770;28;20500;-68
2022/06/24 14:42:39;;;;;;;0.80;0.70;;;;;;;;;;5031657;28;20485;-68
2022/06/24 14:45:05;;;;;;;1.42;0.98;;;;;;;;;;5012501;28;20412;-69
2022/06/24 14:47:31;;;;;;;1.98;0.80;;;;;;;;;;5031475;28;20414;-69
2022/06/24 14:49:56;;;;;;;1.65;0.90;;;;;;;;;;5029905;28;20427;-68
2022/06/24 14:52:21;;;;;;;2.00;1.55;;;;;;;;;;5030705;28;20335;-69
2022/06/24 14:54:47;;;;;;;1.30;0.90;;;;;;;;;;5013036;28;20093;-70
2022/06/24 14:57:12;;;;;;;1.05;0.93;;;;;;;;;;5031001;28;20381;-69
2022/06/24 14:59:38;;;;;;;1.30;0.95;;;;;;;;;;5013203;28;20335;-69
2022/06/24 15:02:03;;;;;;;3.95;1.00;;;;;;;;;;5029399;28;20484;-69
2022/06/24 15:04:29;;;;;;;1.23;0.93;;;;;;;;;;5030871;28;20211;-69
2022/06/24 15:06:54;;;;;;;1.58;1.00;;;;;;;;;;5013709;28;20408;-69